Impacts METAR Board INFO
IDs:

KDFW - Dallas-Ft Worth Intl, TX, US

Updated at: 0639 UTC 12 Dec 2017
Potential Impact None Slight Moderate High
Time11/18Z 11/19Z 11/20Z 11/21Z 11/22Z 11/23Z 12/00Z 12/01Z 12/02Z 12/03Z 12/04Z 12/05Z 12/06Z
VIS10 10 10 10 10 10 10 10 10 10 10 10 10
CIG300 300 -- -- -- 300 -- -- -- -- -- -- --
CoverBKNBKNSCTSCTSCTBKNSCTFEWCLRFEWFEWFEWFEW
FltCatVFRVFRVFRVFRVFRVFRVFRVFRVFRVFRVFRVFRVFR
WX--------------------------
WDir260250250250250270270290320310340340340
WSpd12 14 12 11 12 10 9 11 12 11 10 7 9
WGst-- -- -- -- 20 -- -- -- -- -- -- -- --
Raw hourly METARs
KDFW 111753Z 26012KT 10SM BKN300 23/M08 A3017 RMK AO2 SLP213 T02281078 10228 20028 58023
KDFW 111853Z 25014KT 10SM BKN300 25/M09 A3013 RMK AO2 SLP200 T02501094
KDFW 111953Z 25012KT 10SM SCT300 26/M10 A3010 RMK AO2 SLP190 T02611100
KDFW 112053Z 25011KT 10SM SCT300 26/M11 A3009 RMK AO2 SLP185 T02611106 56027
KDFW 112153Z 25012G20KT 10SM SCT300 26/M12 A3008 RMK AO2 SLP180 T02561122
KDFW 112253Z 27010KT 10SM BKN300 24/M12 A3009 RMK AO2 SLP185 T02391117
KDFW 112353Z 27009KT 10SM SCT300 22/M10 A3009 RMK AO2 SLP187 T02221100 10261 20222 53001
KDFW 120053Z 29011KT 10SM FEW300 22/M09 A3011 RMK AO2 SLP193 T02221094
KDFW 120153Z 32012KT 10SM CLR 19/M09 A3013 RMK AO2 SLP199 T01891089
KDFW 120253Z 31011KT 10SM FEW300 18/M08 A3014 RMK AO2 SLP203 T01781078 51015
KDFW 120353Z 34010KT 10SM FEW300 13/M06 A3017 RMK AO2 SLP213 T01331056
KDFW 120453Z 34007KT 10SM FEW300 12/M06 A3020 RMK AO2 SLP222 T01221061
KDFW 120553Z 34009KT 10SM FEW300 10/M04 A3021 RMK AO2 SLP225 T01001044 10222 20100 402610028 51023